aviador You're here:

SADF Decoded Metar

SAN FERNANDO in ARGENTINA
Report Time2017-08-24 08:00:00
UTC Time2017-08-24 08:51:48
Flight Rules vfr VFR
Wind060° at 05 kt
W.Decomp.*RWY 05: 4.8 kt HW 1.5 kt RCW
W.Rank060° ranks 18
Current wind is below 060° avg. (6.6)
Visibility9999 m
Phenomena:N/A
Clouds:N/A
Expected CloudBase > 1,200 ft AGL from Temp-Dew spread
CeilingNone
Temp18°C (ISA +3)
Dew Point15°C (83% RH)
AAT17.8°C
QNH1008 hPa
Density Alt764 ft
Elevation13 ft
Report Wrong Elevation
Raw Report
SADF 240800Z 06005KT CAVOK 18/15 Q1008=

Extra information for SADF:More info

Metar Taf Metar & Taf Last 4 Metars F.Rules Stats Wind Profile Meteogram Temp Stats Airport Information Weather charts Add Link Nearby VenuesMetar ALERT Operation Metar Decoded Social comments